sensor_id;sensor_type;location;lat;lon;timestamp;P1;durP1;ratioP1;P2;durP2;ratioP2
52530;SDS011;38441;52.894;6.040;2024-01-15T00:01:54;11.85;;;1.55;;
52530;SDS011;38441;52.894;6.040;2024-01-15T00:04:20;10.70;;;1.27;;
52530;SDS011;38441;52.894;6.040;2024-01-15T00:06:45;16.88;;;1.35;;
52530;SDS011;38441;52.894;6.040;2024-01-15T00:09:11;11.52;;;1.45;;
52530;SDS011;38441;52.894;6.040;2024-01-15T00:11:37;12.50;;;1.40;;
52530;SDS011;38441;52.894;6.040;2024-01-15T00:14:02;8.52;;;1.20;;
52530;SDS011;38441;52.894;6.040;2024-01-15T00:16:28;9.32;;;1.10;;
52530;SDS011;38441;52.894;6.040;2024-01-15T00:18:54;8.13;;;1.08;;
52530;SDS011;38441;52.894;6.040;2024-01-15T00:21:19;8.93;;;1.60;;
52530;SDS011;38441;52.894;6.040;2024-01-15T00:23:45;10.90;;;1.20;;
52530;SDS011;38441;52.894;6.040;2024-01-15T00:26:11;12.02;;;1.63;;
52530;SDS011;38441;52.894;6.040;2024-01-15T00:28:37;5.35;;;0.85;;
52530;SDS011;38441;52.894;6.040;2024-01-15T00:31:03;5.13;;;0.90;;
52530;SDS011;38441;52.894;6.040;2024-01-15T00:33:29;12.82;;;1.58;;
52530;SDS011;38441;52.894;6.040;2024-01-15T00:35:55;11.85;;;1.45;;
52530;SDS011;38441;52.894;6.040;2024-01-15T00:38:21;10.15;;;1.25;;
52530;SDS011;38441;52.894;6.040;2024-01-15T00:40:46;10.80;;;1.45;;
52530;SDS011;38441;52.894;6.040;2024-01-15T00:43:12;10.75;;;2.22;;
52530;SDS011;38441;52.894;6.040;2024-01-15T00:45:38;9.18;;;1.08;;
52530;SDS011;38441;52.894;6.040;2024-01-15T00:48:04;12.45;;;1.40;;
52530;SDS011;38441;52.894;6.040;2024-01-15T00:50:30;12.07;;;1.45;;
52530;SDS011;38441;52.894;6.040;2024-01-15T00:52:56;11.10;;;1.10;;
52530;SDS011;38441;52.894;6.040;2024-01-15T00:55:21;12.98;;;1.52;;
52530;SDS011;38441;52.894;6.040;2024-01-15T00:57:47;10.60;;;1.50;;
52530;SDS011;38441;52.894;6.040;2024-01-15T01:00:12;6.85;;;1.13;;
52530;SDS011;38441;52.894;6.040;2024-01-15T01:02:39;11.23;;;1.55;;
52530;SDS011;38441;52.894;6.040;2024-01-15T01:05:04;9.27;;;1.35;;
52530;SDS011;38441;52.894;6.040;2024-01-15T01:07:30;8.50;;;1.67;;
52530;SDS011;38441;52.894;6.040;2024-01-15T01:09:56;15.82;;;2.03;;
52530;SDS011;38441;52.894;6.040;2024-01-15T01:12:21;5.80;;;0.85;;
52530;SDS011;38441;52.894;6.040;2024-01-15T01:14:47;9.77;;;1.15;;
52530;SDS011;38441;52.894;6.040;2024-01-15T01:17:13;6.93;;;1.40;;
52530;SDS011;38441;52.894;6.040;2024-01-15T01:19:38;8.48;;;1.38;;
52530;SDS011;38441;52.894;6.040;2024-01-15T01:22:04;9.48;;;1.40;;
52530;SDS011;38441;52.894;6.040;2024-01-15T01:24:30;7.80;;;0.93;;
52530;SDS011;38441;52.894;6.040;2024-01-15T01:26:55;6.75;;;0.65;;
52530;SDS011;38441;52.894;6.040;2024-01-15T01:29:21;4.57;;;0.90;;
52530;SDS011;38441;52.894;6.040;2024-01-15T01:31:48;3.80;;;0.40;;
52530;SDS011;38441;52.894;6.040;2024-01-15T01:34:14;2.28;;;0.50;;
52530;SDS011;38441;52.894;6.040;2024-01-15T01:36:40;5.45;;;0.70;;
52530;SDS011;38441;52.894;6.040;2024-01-15T01:39:06;2.35;;;0.52;;
52530;SDS011;38441;52.894;6.040;2024-01-15T01:41:32;4.78;;;0.70;;
52530;SDS011;38441;52.894;6.040;2024-01-15T01:43:58;2.15;;;0.50;;
52530;SDS011;38441;52.894;6.040;2024-01-15T01:46:23;5.40;;;0.70;;
52530;SDS011;38441;52.894;6.040;2024-01-15T01:48:52;2.38;;;0.60;;
52530;SDS011;38441;52.894;6.040;2024-01-15T01:51:18;3.15;;;0.47;;
52530;SDS011;38441;52.894;6.040;2024-01-15T01:53:46;3.47;;;0.47;;
52530;SDS011;38441;52.894;6.040;2024-01-15T01:56:12;7.20;;;0.93;;
52530;SDS011;38441;52.894;6.040;2024-01-15T01:58:39;4.20;;;0.40;;
52530;SDS011;38441;52.894;6.040;2024-01-15T02:01:05;8.07;;;1.02;;
52530;SDS011;38441;52.894;6.040;2024-01-15T02:03:31;10.13;;;1.20;;
52530;SDS011;38441;52.894;6.040;2024-01-15T02:05:58;9.00;;;0.80;;
52530;SDS011;38441;52.894;6.040;2024-01-15T02:08:25;7.10;;;0.82;;
52530;SDS011;38441;52.894;6.040;2024-01-15T02:10:51;3.65;;;0.60;;
52530;SDS011;38441;52.894;6.040;2024-01-15T02:13:17;8.82;;;0.80;;
52530;SDS011;38441;52.894;6.040;2024-01-15T02:15:43;2.33;;;0.63;;
52530;SDS011;38441;52.894;6.040;2024-01-15T02:18:09;6.10;;;0.68;;
52530;SDS011;38441;52.894;6.040;2024-01-15T02:20:35;6.90;;;1.00;;
52530;SDS011;38441;52.894;6.040;2024-01-15T02:23:12;10.88;;;0.90;;
52530;SDS011;38441;52.894;6.040;2024-01-15T02:25:39;6.32;;;0.60;;
52530;SDS011;38441;52.894;6.040;2024-01-15T02:28:06;6.45;;;0.82;;
52530;SDS011;38441;52.894;6.040;2024-01-15T02:30:37;5.03;;;0.75;;
52530;SDS011;38441;52.894;6.040;2024-01-15T02:33:05;6.72;;;0.82;;
52530;SDS011;38441;52.894;6.040;2024-01-15T02:35:31;3.70;;;0.57;;
52530;SDS011;38441;52.894;6.040;2024-01-15T02:37:57;6.35;;;0.60;;
52530;SDS011;38441;52.894;6.040;2024-01-15T02:40:23;4.53;;;0.70;;
52530;SDS011;38441;52.894;6.040;2024-01-15T02:42:49;7.15;;;0.70;;
52530;SDS011;38441;52.894;6.040;2024-01-15T02:45:15;7.63;;;1.02;;
52530;SDS011;38441;52.894;6.040;2024-01-15T02:47:40;6.25;;;0.80;;
52530;SDS011;38441;52.894;6.040;2024-01-15T02:50:06;11.32;;;1.25;;
52530;SDS011;38441;52.894;6.040;2024-01-15T02:52:32;6.00;;;1.02;;
52530;SDS011;38441;52.894;6.040;2024-01-15T02:54:57;5.20;;;0.90;;
52530;SDS011;38441;52.894;6.040;2024-01-15T02:57:23;8.75;;;1.00;;
52530;SDS011;38441;52.894;6.040;2024-01-15T02:59:49;6.85;;;0.88;;
52530;SDS011;38441;52.894;6.040;2024-01-15T03:02:14;9.35;;;1.40;;
52530;SDS011;38441;52.894;6.040;2024-01-15T03:04:43;11.23;;;0.80;;
52530;SDS011;38441;52.894;6.040;2024-01-15T03:07:09;7.63;;;0.80;;
52530;SDS011;38441;52.894;6.040;2024-01-15T03:09:35;6.78;;;0.98;;
52530;SDS011;38441;52.894;6.040;2024-01-15T03:12:01;7.45;;;1.23;;
52530;SDS011;38441;52.894;6.040;2024-01-15T03:14:26;9.73;;;1.17;;
52530;SDS011;38441;52.894;6.040;2024-01-15T03:16:52;11.05;;;1.70;;
52530;SDS011;38441;52.894;6.040;2024-01-15T03:19:18;7.55;;;0.90;;
52530;SDS011;38441;52.894;6.040;2024-01-15T03:21:44;10.57;;;1.20;;
52530;SDS011;38441;52.894;6.040;2024-01-15T03:24:09;8.75;;;0.85;;
52530;SDS011;38441;52.894;6.040;2024-01-15T03:26:35;10.57;;;1.35;;
52530;SDS011;38441;52.894;6.040;2024-01-15T03:29:00;10.15;;;1.45;;
52530;SDS011;38441;52.894;6.040;2024-01-15T03:31:26;7.93;;;1.10;;
52530;SDS011;38441;52.894;6.040;2024-01-15T03:33:52;10.07;;;1.58;;
52530;SDS011;38441;52.894;6.040;2024-01-15T03:36:17;11.50;;;1.50;;
52530;SDS011;38441;52.894;6.040;2024-01-15T03:38:43;10.57;;;1.40;;
52530;SDS011;38441;52.894;6.040;2024-01-15T03:41:09;11.38;;;1.40;;
52530;SDS011;38441;52.894;6.040;2024-01-15T03:43:34;8.18;;;1.45;;
52530;SDS011;38441;52.894;6.040;2024-01-15T03:46:00;6.43;;;1.08;;
52530;SDS011;38441;52.894;6.040;2024-01-15T03:48:27;9.73;;;1.25;;
52530;SDS011;38441;52.894;6.040;2024-01-15T03:50:52;9.02;;;1.35;;
52530;SDS011;38441;52.894;6.040;2024-01-15T03:53:18;8.57;;;1.58;;
52530;SDS011;38441;52.894;6.040;2024-01-15T03:55:44;9.77;;;1.40;;
52530;SDS011;38441;52.894;6.040;2024-01-15T03:58:10;7.03;;;0.90;;
52530;SDS011;38441;52.894;6.040;2024-01-15T04:00:35;7.50;;;1.33;;
52530;SDS011;38441;52.894;6.040;2024-01-15T04:03:01;9.90;;;1.42;;
52530;SDS011;38441;52.894;6.040;2024-01-15T04:05:27;13.27;;;2.00;;
52530;SDS011;38441;52.894;6.040;2024-01-15T04:07:52;13.20;;;1.30;;
52530;SDS011;38441;52.894;6.040;2024-01-15T04:10:18;6.93;;;1.20;;
52530;SDS011;38441;52.894;6.040;2024-01-15T04:12:43;9.98;;;1.50;;
52530;SDS011;38441;52.894;6.040;2024-01-15T04:15:11;14.82;;;1.35;;
52530;SDS011;38441;52.894;6.040;2024-01-15T04:17:37;8.00;;;1.13;;
52530;SDS011;38441;52.894;6.040;2024-01-15T04:20:03;10.45;;;1.67;;
52530;SDS011;38441;52.894;6.040;2024-01-15T04:22:29;11.13;;;1.63;;
52530;SDS011;38441;52.894;6.040;2024-01-15T04:24:55;6.40;;;2.03;;
52530;SDS011;38441;52.894;6.040;2024-01-15T04:27:21;10.65;;;1.38;;
52530;SDS011;38441;52.894;6.040;2024-01-15T04:29:46;6.57;;;1.13;;
52530;SDS011;38441;52.894;6.040;2024-01-15T04:32:14;12.02;;;1.35;;
52530;SDS011;38441;52.894;6.040;2024-01-15T04:34:40;12.68;;;1.70;;
52530;SDS011;38441;52.894;6.040;2024-01-15T04:37:05;9.07;;;1.25;;
52530;SDS011;38441;52.894;6.040;2024-01-15T04:39:31;8.45;;;1.00;;
52530;SDS011;38441;52.894;6.040;2024-01-15T04:41:57;8.13;;;0.98;;
52530;SDS011;38441;52.894;6.040;2024-01-15T04:44:22;6.75;;;0.80;;
52530;SDS011;38441;52.894;6.040;2024-01-15T04:46:48;10.57;;;1.38;;
52530;SDS011;38441;52.894;6.040;2024-01-15T04:49:14;8.75;;;0.93;;
52530;SDS011;38441;52.894;6.040;2024-01-15T04:51:39;9.40;;;1.05;;
52530;SDS011;38441;52.894;6.040;2024-01-15T04:54:05;6.15;;;1.08;;
52530;SDS011;38441;52.894;6.040;2024-01-15T04:56:30;7.45;;;0.88;;
52530;SDS011;38441;52.894;6.040;2024-01-15T04:58:56;6.07;;;0.80;;
52530;SDS011;38441;52.894;6.040;2024-01-15T05:01:22;6.57;;;0.70;;
52530;SDS011;38441;52.894;6.040;2024-01-15T05:03:47;7.35;;;1.13;;
52530;SDS011;38441;52.894;6.040;2024-01-15T05:06:14;5.47;;;0.70;;
52530;SDS011;38441;52.894;6.040;2024-01-15T05:08:40;8.57;;;1.30;;
52530;SDS011;38441;52.894;6.040;2024-01-15T05:11:06;9.40;;;0.90;;
52530;SDS011;38441;52.894;6.040;2024-01-15T05:13:32;8.80;;;1.35;;
52530;SDS011;38441;52.894;6.040;2024-01-15T05:15:57;10.10;;;1.20;;
52530;SDS011;38441;52.894;6.040;2024-01-15T05:18:23;7.65;;;0.90;;
52530;SDS011;38441;52.894;6.040;2024-01-15T05:20:49;9.80;;;1.10;;
52530;SDS011;38441;52.894;6.040;2024-01-15T05:23:14;7.47;;;1.45;;
52530;SDS011;38441;52.894;6.040;2024-01-15T05:25:40;9.10;;;2.20;;
52530;SDS011;38441;52.894;6.040;2024-01-15T05:28:05;6.65;;;1.60;;
52530;SDS011;38441;52.894;6.040;2024-01-15T05:30:31;7.45;;;1.27;;
52530;SDS011;38441;52.894;6.040;2024-01-15T05:32:57;6.45;;;1.30;;
52530;SDS011;38441;52.894;6.040;2024-01-15T05:35:22;8.80;;;2.00;;
52530;SDS011;38441;52.894;6.040;2024-01-15T05:37:48;7.95;;;1.30;;
52530;SDS011;38441;52.894;6.040;2024-01-15T05:40:14;9.73;;;1.50;;
52530;SDS011;38441;52.894;6.040;2024-01-15T05:42:40;9.10;;;1.20;;
52530;SDS011;38441;52.894;6.040;2024-01-15T05:45:06;13.98;;;2.50;;
52530;SDS011;38441;52.894;6.040;2024-01-15T05:47:32;8.23;;;1.35;;
52530;SDS011;38441;52.894;6.040;2024-01-15T05:49:58;8.80;;;1.10;;
52530;SDS011;38441;52.894;6.040;2024-01-15T05:52:23;8.38;;;1.38;;
52530;SDS011;38441;52.894;6.040;2024-01-15T05:54:49;10.82;;;1.58;;
52530;SDS011;38441;52.894;6.040;2024-01-15T05:57:15;7.82;;;1.50;;
52530;SDS011;38441;52.894;6.040;2024-01-15T05:59:41;12.10;;;1.55;;
52530;SDS011;38441;52.894;6.040;2024-01-15T06:02:07;6.45;;;0.90;;
52530;SDS011;38441;52.894;6.040;2024-01-15T06:04:33;10.23;;;1.15;;
52530;SDS011;38441;52.894;6.040;2024-01-15T06:06:59;11.90;;;1.35;;
52530;SDS011;38441;52.894;6.040;2024-01-15T06:09:24;11.65;;;1.15;;
52530;SDS011;38441;52.894;6.040;2024-01-15T06:11:50;14.13;;;1.48;;
52530;SDS011;38441;52.894;6.040;2024-01-15T06:14:16;11.82;;;1.52;;
52530;SDS011;38441;52.894;6.040;2024-01-15T06:16:41;7.85;;;1.20;;
52530;SDS011;38441;52.894;6.040;2024-01-15T06:19:07;13.65;;;1.50;;
52530;SDS011;38441;52.894;6.040;2024-01-15T06:21:33;14.30;;;2.13;;
52530;SDS011;38441;52.894;6.040;2024-01-15T06:23:58;7.72;;;1.00;;
52530;SDS011;38441;52.894;6.040;2024-01-15T06:26:24;12.73;;;1.73;;
52530;SDS011;38441;52.894;6.040;2024-01-15T06:28:50;12.27;;;1.88;;
52530;SDS011;38441;52.894;6.040;2024-01-15T06:31:15;13.90;;;1.63;;
52530;SDS011;38441;52.894;6.040;2024-01-15T06:33:41;11.90;;;1.25;;
52530;SDS011;38441;52.894;6.040;2024-01-15T06:36:07;9.32;;;1.48;;
52530;SDS011;38441;52.894;6.040;2024-01-15T06:38:33;7.68;;;1.25;;
52530;SDS011;38441;52.894;6.040;2024-01-15T06:40:59;6.50;;;1.60;;
52530;SDS011;38441;52.894;6.040;2024-01-15T06:43:25;12.45;;;2.50;;
52530;SDS011;38441;52.894;6.040;2024-01-15T06:45:50;8.38;;;1.98;;
52530;SDS011;38441;52.894;6.040;2024-01-15T06:48:16;12.00;;;2.35;;
52530;SDS011;38441;52.894;6.040;2024-01-15T06:50:42;10.55;;;1.77;;
52530;SDS011;38441;52.894;6.040;2024-01-15T06:53:08;9.18;;;1.38;;
52530;SDS011;38441;52.894;6.040;2024-01-15T06:55:34;9.25;;;1.27;;
52530;SDS011;38441;52.894;6.040;2024-01-15T06:57:59;8.80;;;1.10;;
52530;SDS011;38441;52.894;6.040;2024-01-15T07:00:25;9.18;;;1.38;;
52530;SDS011;38441;52.894;6.040;2024-01-15T07:02:52;7.03;;;1.52;;
52530;SDS011;38441;52.894;6.040;2024-01-15T07:05:20;9.40;;;1.40;;
52530;SDS011;38441;52.894;6.040;2024-01-15T07:07:46;9.52;;;1.38;;
52530;SDS011;38441;52.894;6.040;2024-01-15T07:10:12;12.68;;;2.10;;
52530;SDS011;38441;52.894;6.040;2024-01-15T07:12:38;16.00;;;4.35;;
52530;SDS011;38441;52.894;6.040;2024-01-15T07:15:04;14.70;;;2.53;;
52530;SDS011;38441;52.894;6.040;2024-01-15T07:17:32;11.52;;;2.58;;
52530;SDS011;38441;52.894;6.040;2024-01-15T07:19:58;5.15;;;1.38;;
52530;SDS011;38441;52.894;6.040;2024-01-15T07:22:24;11.95;;;1.85;;
52530;SDS011;38441;52.894;6.040;2024-01-15T07:24:50;13.93;;;2.05;;
52530;SDS011;38441;52.894;6.040;2024-01-15T07:27:15;6.55;;;1.30;;
52530;SDS011;38441;52.894;6.040;2024-01-15T07:29:41;7.75;;;1.10;;
52530;SDS011;38441;52.894;6.040;2024-01-15T07:32:08;11.80;;;1.05;;
52530;SDS011;38441;52.894;6.040;2024-01-15T07:34:33;13.15;;;1.58;;
52530;SDS011;38441;52.894;6.040;2024-01-15T07:36:59;8.80;;;1.23;;
52530;SDS011;38441;52.894;6.040;2024-01-15T07:39:25;6.90;;;1.05;;
52530;SDS011;38441;52.894;6.040;2024-01-15T07:41:54;9.10;;;1.17;;
52530;SDS011;38441;52.894;6.040;2024-01-15T07:44:19;8.25;;;0.85;;
52530;SDS011;38441;52.894;6.040;2024-01-15T07:46:45;7.05;;;1.45;;
52530;SDS011;38441;52.894;6.040;2024-01-15T07:49:12;6.75;;;1.10;;
52530;SDS011;38441;52.894;6.040;2024-01-15T07:51:38;7.75;;;1.27;;
52530;SDS011;38441;52.894;6.040;2024-01-15T07:54:05;11.55;;;1.63;;
52530;SDS011;38441;52.894;6.040;2024-01-15T07:56:32;8.63;;;1.45;;
52530;SDS011;38441;52.894;6.040;2024-01-15T07:58:58;10.07;;;1.40;;
52530;SDS011;38441;52.894;6.040;2024-01-15T08:01:24;12.30;;;1.42;;
52530;SDS011;38441;52.894;6.040;2024-01-15T08:03:49;10.52;;;1.58;;
52530;SDS011;38441;52.894;6.040;2024-01-15T08:06:15;9.55;;;1.35;;
52530;SDS011;38441;52.894;6.040;2024-01-15T08:08:41;9.48;;;1.27;;
52530;SDS011;38441;52.894;6.040;2024-01-15T08:11:06;13.63;;;1.27;;
52530;SDS011;38441;52.894;6.040;2024-01-15T08:13:32;10.07;;;1.30;;
52530;SDS011;38441;52.894;6.040;2024-01-15T08:15:58;8.48;;;1.05;;
52530;SDS011;38441;52.894;6.040;2024-01-15T08:18:23;8.93;;;1.33;;
52530;SDS011;38441;52.894;6.040;2024-01-15T08:20:50;9.05;;;1.05;;
52530;SDS011;38441;52.894;6.040;2024-01-15T08:23:17;11.40;;;1.63;;
52530;SDS011;38441;52.894;6.040;2024-01-15T08:25:42;7.47;;;1.05;;
52530;SDS011;38441;52.894;6.040;2024-01-15T08:28:08;9.02;;;1.25;;
52530;SDS011;38441;52.894;6.040;2024-01-15T08:30:34;5.18;;;0.80;;
52530;SDS011;38441;52.894;6.040;2024-01-15T08:32:59;11.50;;;1.38;;
52530;SDS011;38441;52.894;6.040;2024-01-15T08:35:25;13.45;;;1.77;;
52530;SDS011;38441;52.894;6.040;2024-01-15T08:37:51;6.93;;;0.95;;
52530;SDS011;38441;52.894;6.040;2024-01-15T08:40:18;7.65;;;0.90;;
52530;SDS011;38441;52.894;6.040;2024-01-15T08:42:44;7.65;;;1.23;;
52530;SDS011;38441;52.894;6.040;2024-01-15T08:45:13;7.97;;;1.00;;
52530;SDS011;38441;52.894;6.040;2024-01-15T08:47:39;8.32;;;0.95;;
52530;SDS011;38441;52.894;6.040;2024-01-15T08:50:05;9.35;;;1.48;;
52530;SDS011;38441;52.894;6.040;2024-01-15T08:52:31;6.15;;;0.80;;
52530;SDS011;38441;52.894;6.040;2024-01-15T08:54:56;9.20;;;1.05;;
52530;SDS011;38441;52.894;6.040;2024-01-15T08:57:22;12.52;;;1.73;;
52530;SDS011;38441;52.894;6.040;2024-01-15T08:59:48;8.20;;;1.15;;
52530;SDS011;38441;52.894;6.040;2024-01-15T09:02:14;7.57;;;1.10;;
52530;SDS011;38441;52.894;6.040;2024-01-15T09:04:40;7.38;;;1.48;;
52530;SDS011;38441;52.894;6.040;2024-01-15T09:07:06;11.75;;;1.27;;
52530;SDS011;38441;52.894;6.040;2024-01-15T09:09:32;8.15;;;1.10;;
52530;SDS011;38441;52.894;6.040;2024-01-15T09:11:59;8.43;;;1.15;;
52530;SDS011;38441;52.894;6.040;2024-01-15T09:14:24;11.32;;;1.45;;
52530;SDS011;38441;52.894;6.040;2024-01-15T09:16:52;8.63;;;0.88;;
52530;SDS011;38441;52.894;6.040;2024-01-15T09:19:18;7.88;;;0.82;;
52530;SDS011;38441;52.894;6.040;2024-01-15T09:21:44;6.43;;;1.15;;
52530;SDS011;38441;52.894;6.040;2024-01-15T09:24:09;6.35;;;1.13;;
52530;SDS011;38441;52.894;6.040;2024-01-15T09:26:35;10.75;;;1.90;;
52530;SDS011;38441;52.894;6.040;2024-01-15T09:29:01;7.47;;;1.00;;
52530;SDS011;38441;52.894;6.040;2024-01-15T09:31:28;8.10;;;0.93;;
52530;SDS011;38441;52.894;6.040;2024-01-15T09:33:53;10.93;;;1.35;;
52530;SDS011;38441;52.894;6.040;2024-01-15T09:36:23;7.53;;;1.00;;
52530;SDS011;38441;52.894;6.040;2024-01-15T09:38:49;4.78;;;0.73;;
52530;SDS011;38441;52.894;6.040;2024-01-15T09:41:15;5.68;;;1.10;;
52530;SDS011;38441;52.894;6.040;2024-01-15T09:43:41;3.15;;;0.60;;
52530;SDS011;38441;52.894;6.040;2024-01-15T09:46:07;6.45;;;0.60;;
52530;SDS011;38441;52.894;6.040;2024-01-15T09:48:33;6.93;;;0.90;;
52530;SDS011;38441;52.894;6.040;2024-01-15T09:51:00;8.15;;;0.80;;
52530;SDS011;38441;52.894;6.040;2024-01-15T09:53:26;4.18;;;0.60;;
52530;SDS011;38441;52.894;6.040;2024-01-15T09:55:52;4.28;;;0.85;;
52530;SDS011;38441;52.894;6.040;2024-01-15T09:58:18;5.78;;;0.88;;
52530;SDS011;38441;52.894;6.040;2024-01-15T10:00:46;7.13;;;0.70;;
52530;SDS011;38441;52.894;6.040;2024-01-15T10:03:15;4.45;;;0.82;;
52530;SDS011;38441;52.894;6.040;2024-01-15T10:05:41;10.18;;;1.10;;
52530;SDS011;38441;52.894;6.040;2024-01-15T10:08:07;6.70;;;0.90;;
52530;SDS011;38441;52.894;6.040;2024-01-15T10:10:33;6.78;;;1.23;;
52530;SDS011;38441;52.894;6.040;2024-01-15T10:13:01;4.78;;;0.80;;
52530;SDS011;38441;52.894;6.040;2024-01-15T10:15:29;8.50;;;0.80;;
52530;SDS011;38441;52.894;6.040;2024-01-15T10:17:54;4.30;;;0.73;;
52530;SDS011;38441;52.894;6.040;2024-01-15T10:20:20;5.05;;;0.68;;
52530;SDS011;38441;52.894;6.040;2024-01-15T10:22:49;5.32;;;0.73;;
52530;SDS011;38441;52.894;6.040;2024-01-15T10:25:16;3.50;;;0.47;;
52530;SDS011;38441;52.894;6.040;2024-01-15T10:27:47;3.97;;;0.60;;
52530;SDS011;38441;52.894;6.040;2024-01-15T10:30:27;4.90;;;0.70;;
52530;SDS011;38441;52.894;6.040;2024-01-15T10:33:00;2.88;;;0.50;;
52530;SDS011;38441;52.894;6.040;2024-01-15T10:35:28;6.55;;;0.55;;
52530;SDS011;38441;52.894;6.040;2024-01-15T10:37:58;6.40;;;0.80;;
52530;SDS011;38441;52.894;6.040;2024-01-15T10:40:24;4.10;;;0.40;;
52530;SDS011;38441;52.894;6.040;2024-01-15T10:42:50;2.38;;;0.40;;
52530;SDS011;38441;52.894;6.040;2024-01-15T10:45:16;3.05;;;0.45;;
52530;SDS011;38441;52.894;6.040;2024-01-15T10:47:42;3.53;;;0.40;;
52530;SDS011;38441;52.894;6.040;2024-01-15T10:50:09;2.10;;;0.40;;
52530;SDS011;38441;52.894;6.040;2024-01-15T10:52:38;1.70;;;0.20;;
52530;SDS011;38441;52.894;6.040;2024-01-15T10:55:06;0.47;;;0.22;;
52530;SDS011;38441;52.894;6.040;2024-01-15T10:57:36;2.25;;;0.30;;
52530;SDS011;38441;52.894;6.040;2024-01-15T11:00:03;1.75;;;0.30;;
52530;SDS011;38441;52.894;6.040;2024-01-15T11:02:32;0.55;;;0.20;;
52530;SDS011;38441;52.894;6.040;2024-01-15T11:05:09;0.98;;;0.30;;
52530;SDS011;38441;52.894;6.040;2024-01-15T11:07:35;2.55;;;0.85;;
52530;SDS011;38441;52.894;6.040;2024-01-15T11:10:03;2.60;;;0.38;;
52530;SDS011;38441;52.894;6.040;2024-01-15T11:12:29;1.23;;;0.45;;
52530;SDS011;38441;52.894;6.040;2024-01-15T11:15:02;1.98;;;0.30;;
52530;SDS011;38441;52.894;6.040;2024-01-15T11:17:30;2.78;;;0.40;;
52530;SDS011;38441;52.894;6.040;2024-01-15T11:20:26;4.25;;;0.55;;
52530;SDS011;38441;52.894;6.040;2024-01-15T11:22:51;1.65;;;0.40;;
52530;SDS011;38441;52.894;6.040;2024-01-15T11:25:18;4.43;;;0.75;;
52530;SDS011;38441;52.894;6.040;2024-01-15T11:27:45;1.67;;;0.30;;
52530;SDS011;38441;52.894;6.040;2024-01-15T11:30:20;1.73;;;0.50;;
52530;SDS011;38441;52.894;6.040;2024-01-15T11:32:50;3.35;;;0.50;;
52530;SDS011;38441;52.894;6.040;2024-01-15T11:35:15;3.00;;;0.73;;
52530;SDS011;38441;52.894;6.040;2024-01-15T11:40:20;8.60;;;0.98;;
52530;SDS011;38441;52.894;6.040;2024-01-15T11:42:47;8.20;;;1.33;;
52530;SDS011;38441;52.894;6.040;2024-01-15T11:45:18;6.03;;;1.40;;
52530;SDS011;38441;52.894;6.040;2024-01-15T11:50:16;9.55;;;1.40;;
52530;SDS011;38441;52.894;6.040;2024-01-15T11:52:42;10.88;;;1.75;;
52530;SDS011;38441;52.894;6.040;2024-01-15T11:55:27;6.95;;;1.70;;
52530;SDS011;38441;52.894;6.040;2024-01-15T11:57:55;5.60;;;1.20;;
52530;SDS011;38441;52.894;6.040;2024-01-15T12:00:26;8.98;;;1.13;;
52530;SDS011;38441;52.894;6.040;2024-01-15T12:02:52;8.07;;;0.95;;
52530;SDS011;38441;52.894;6.040;2024-01-15T12:05:18;5.15;;;0.98;;
52530;SDS011;38441;52.894;6.040;2024-01-15T12:07:46;7.43;;;1.17;;
52530;SDS011;38441;52.894;6.040;2024-01-15T12:10:14;4.82;;;0.65;;
52530;SDS011;38441;52.894;6.040;2024-01-15T12:15:18;6.20;;;1.20;;
52530;SDS011;38441;52.894;6.040;2024-01-15T12:17:45;4.15;;;0.65;;
52530;SDS011;38441;52.894;6.040;2024-01-15T12:20:12;4.35;;;0.30;;
52530;SDS011;38441;52.894;6.040;2024-01-15T12:22:39;5.18;;;0.50;;
52530;SDS011;38441;52.894;6.040;2024-01-15T12:25:04;6.03;;;0.80;;
52530;SDS011;38441;52.894;6.040;2024-01-15T12:27:30;4.10;;;1.02;;
52530;SDS011;38441;52.894;6.040;2024-01-15T12:29:57;3.15;;;1.15;;
52530;SDS011;38441;52.894;6.040;2024-01-15T12:32:24;6.18;;;1.30;;
52530;SDS011;38441;52.894;6.040;2024-01-15T12:34:50;5.00;;;0.77;;
52530;SDS011;38441;52.894;6.040;2024-01-15T12:37:18;4.80;;;0.93;;
52530;SDS011;38441;52.894;6.040;2024-01-15T12:39:44;6.40;;;0.82;;
52530;SDS011;38441;52.894;6.040;2024-01-15T12:42:10;9.27;;;1.25;;
52530;SDS011;38441;52.894;6.040;2024-01-15T12:44:36;6.57;;;1.00;;
52530;SDS011;38441;52.894;6.040;2024-01-15T12:47:05;9.98;;;1.25;;
52530;SDS011;38441;52.894;6.040;2024-01-15T12:49:31;6.32;;;1.13;;
52530;SDS011;38441;52.894;6.040;2024-01-15T12:51:57;6.97;;;1.00;;
52530;SDS011;38441;52.894;6.040;2024-01-15T12:54:24;7.30;;;1.00;;
52530;SDS011;38441;52.894;6.040;2024-01-15T12:56:50;8.30;;;0.93;;
52530;SDS011;38441;52.894;6.040;2024-01-15T12:59:16;5.97;;;0.88;;
52530;SDS011;38441;52.894;6.040;2024-01-15T13:01:43;7.70;;;1.00;;
52530;SDS011;38441;52.894;6.040;2024-01-15T13:04:09;8.38;;;1.27;;
52530;SDS011;38441;52.894;6.040;2024-01-15T13:06:35;7.57;;;1.30;;
52530;SDS011;38441;52.894;6.040;2024-01-15T13:09:02;7.47;;;1.20;;
52530;SDS011;38441;52.894;6.040;2024-01-15T13:11:30;6.32;;;1.00;;
52530;SDS011;38441;52.894;6.040;2024-01-15T13:13:57;9.02;;;0.90;;
52530;SDS011;38441;52.894;6.040;2024-01-15T13:16:22;11.85;;;1.70;;
52530;SDS011;38441;52.894;6.040;2024-01-15T13:18:48;9.52;;;1.85;;
52530;SDS011;38441;52.894;6.040;2024-01-15T13:21:15;7.97;;;1.42;;
52530;SDS011;38441;52.894;6.040;2024-01-15T13:23:47;9.20;;;1.17;;
52530;SDS011;38441;52.894;6.040;2024-01-15T13:26:12;7.50;;;1.17;;
52530;SDS011;38441;52.894;6.040;2024-01-15T13:28:38;8.50;;;1.40;;
52530;SDS011;38441;52.894;6.040;2024-01-15T13:31:04;6.85;;;0.90;;
52530;SDS011;38441;52.894;6.040;2024-01-15T13:33:30;5.28;;;1.35;;
52530;SDS011;38441;52.894;6.040;2024-01-15T13:35:55;10.27;;;1.50;;
52530;SDS011;38441;52.894;6.040;2024-01-15T13:38:21;9.45;;;1.38;;
52530;SDS011;38441;52.894;6.040;2024-01-15T13:40:46;8.73;;;1.27;;
52530;SDS011;38441;52.894;6.040;2024-01-15T13:43:12;15.80;;;1.90;;
52530;SDS011;38441;52.894;6.040;2024-01-15T13:45:39;11.77;;;1.70;;
52530;SDS011;38441;52.894;6.040;2024-01-15T13:48:14;10.15;;;1.75;;
52530;SDS011;38441;52.894;6.040;2024-01-15T13:53:10;8.88;;;1.73;;
52530;SDS011;38441;52.894;6.040;2024-01-15T13:55:36;7.13;;;1.52;;
52530;SDS011;38441;52.894;6.040;2024-01-15T13:58:01;11.88;;;1.17;;
52530;SDS011;38441;52.894;6.040;2024-01-15T14:00:30;10.82;;;1.33;;
52530;SDS011;38441;52.894;6.040;2024-01-15T14:03:00;8.63;;;1.23;;
52530;SDS011;38441;52.894;6.040;2024-01-15T14:05:25;11.32;;;1.77;;
52530;SDS011;38441;52.894;6.040;2024-01-15T14:07:51;14.38;;;1.63;;
52530;SDS011;38441;52.894;6.040;2024-01-15T14:10:17;12.43;;;1.50;;
52530;SDS011;38441;52.894;6.040;2024-01-15T14:12:43;11.40;;;1.65;;
52530;SDS011;38441;52.894;6.040;2024-01-15T14:15:08;11.90;;;1.75;;
52530;SDS011;38441;52.894;6.040;2024-01-15T14:17:34;8.18;;;1.50;;
52530;SDS011;38441;52.894;6.040;2024-01-15T14:20:01;11.80;;;1.77;;
52530;SDS011;38441;52.894;6.040;2024-01-15T14:22:26;7.47;;;1.33;;
52530;SDS011;38441;52.894;6.040;2024-01-15T14:24:52;6.78;;;0.88;;
52530;SDS011;38441;52.894;6.040;2024-01-15T14:27:19;8.52;;;1.25;;
52530;SDS011;38441;52.894;6.040;2024-01-15T14:29:44;6.57;;;1.13;;
52530;SDS011;38441;52.894;6.040;2024-01-15T14:32:11;8.10;;;0.98;;
52530;SDS011;38441;52.894;6.040;2024-01-15T14:34:37;6.65;;;0.90;;
52530;SDS011;38441;52.894;6.040;2024-01-15T14:37:03;4.65;;;0.70;;
52530;SDS011;38441;52.894;6.040;2024-01-15T14:39:29;7.18;;;0.77;;
52530;SDS011;38441;52.894;6.040;2024-01-15T14:41:57;7.47;;;0.82;;
52530;SDS011;38441;52.894;6.040;2024-01-15T14:44:22;7.75;;;0.90;;
52530;SDS011;38441;52.894;6.040;2024-01-15T14:46:49;8.13;;;0.95;;
52530;SDS011;38441;52.894;6.040;2024-01-15T14:49:15;4.93;;;0.80;;